sensor_id;sensor_type;location;lat;lon;timestamp;P1;durP1;ratioP1;P2;durP2;ratioP2
74162;SDS011;62515;52.758;5.076;2023-08-06T00:00:19;21.63;;;17.80;;
74162;SDS011;62515;52.758;5.076;2023-08-06T00:02:46;24.88;;;18.85;;
74162;SDS011;62515;52.758;5.076;2023-08-06T00:05:12;23.38;;;18.23;;
74162;SDS011;62515;52.758;5.076;2023-08-06T00:07:40;25.73;;;18.80;;
74162;SDS011;62515;52.758;5.076;2023-08-06T00:10:07;23.42;;;19.15;;
74162;SDS011;62515;52.758;5.076;2023-08-06T00:12:34;22.92;;;18.20;;
74162;SDS011;62515;52.758;5.076;2023-08-06T00:15:01;23.25;;;18.27;;
74162;SDS011;62515;52.758;5.076;2023-08-06T00:17:28;22.45;;;17.52;;
74162;SDS011;62515;52.758;5.076;2023-08-06T00:19:54;22.02;;;17.05;;
74162;SDS011;62515;52.758;5.076;2023-08-06T00:22:21;23.50;;;17.20;;
74162;SDS011;62515;52.758;5.076;2023-08-06T00:24:49;18.67;;;16.25;;
74162;SDS011;62515;52.758;5.076;2023-08-06T00:27:16;23.48;;;18.52;;
74162;SDS011;62515;52.758;5.076;2023-08-06T00:29:43;17.42;;;15.70;;
74162;SDS011;62515;52.758;5.076;2023-08-06T00:32:09;19.48;;;15.80;;
74162;SDS011;62515;52.758;5.076;2023-08-06T00:34:36;17.38;;;14.70;;
74162;SDS011;62515;52.758;5.076;2023-08-06T00:37:03;18.58;;;15.90;;
74162;SDS011;62515;52.758;5.076;2023-08-06T00:39:30;18.58;;;14.85;;
74162;SDS011;62515;52.758;5.076;2023-08-06T00:41:58;20.48;;;17.00;;
74162;SDS011;62515;52.758;5.076;2023-08-06T00:44:25;20.15;;;16.20;;
74162;SDS011;62515;52.758;5.076;2023-08-06T00:46:51;19.63;;;16.30;;
74162;SDS011;62515;52.758;5.076;2023-08-06T00:49:18;20.17;;;17.73;;
74162;SDS011;62515;52.758;5.076;2023-08-06T00:51:45;19.60;;;16.05;;
74162;SDS011;62515;52.758;5.076;2023-08-06T00:54:13;23.42;;;17.00;;
74162;SDS011;62515;52.758;5.076;2023-08-06T00:56:40;21.20;;;16.40;;
74162;SDS011;62515;52.758;5.076;2023-08-06T00:59:09;21.33;;;19.13;;
74162;SDS011;62515;52.758;5.076;2023-08-06T01:01:38;21.58;;;17.25;;
74162;SDS011;62515;52.758;5.076;2023-08-06T01:04:04;23.83;;;17.52;;
74162;SDS011;62515;52.758;5.076;2023-08-06T01:06:33;23.85;;;18.80;;
74162;SDS011;62515;52.758;5.076;2023-08-06T01:09:07;22.98;;;18.05;;
74162;SDS011;62515;52.758;5.076;2023-08-06T01:11:49;21.85;;;17.00;;
74162;SDS011;62515;52.758;5.076;2023-08-06T01:14:28;24.95;;;19.73;;
74162;SDS011;62515;52.758;5.076;2023-08-06T01:17:00;22.75;;;18.38;;
74162;SDS011;62515;52.758;5.076;2023-08-06T01:19:28;26.27;;;19.70;;
74162;SDS011;62515;52.758;5.076;2023-08-06T01:21:56;27.15;;;21.08;;
74162;SDS011;62515;52.758;5.076;2023-08-06T01:24:22;23.63;;;19.83;;
74162;SDS011;62515;52.758;5.076;2023-08-06T01:26:51;26.73;;;20.52;;
74162;SDS011;62515;52.758;5.076;2023-08-06T01:29:28;27.55;;;20.05;;
74162;SDS011;62515;52.758;5.076;2023-08-06T01:31:59;24.10;;;20.05;;
74162;SDS011;62515;52.758;5.076;2023-08-06T01:34:29;23.48;;;19.05;;
74162;SDS011;62515;52.758;5.076;2023-08-06T01:37:00;26.52;;;19.13;;
74162;SDS011;62515;52.758;5.076;2023-08-06T01:39:31;26.98;;;19.15;;
74162;SDS011;62515;52.758;5.076;2023-08-06T01:42:03;26.10;;;19.70;;
74162;SDS011;62515;52.758;5.076;2023-08-06T01:44:30;28.52;;;22.42;;
74162;SDS011;62515;52.758;5.076;2023-08-06T01:46:58;22.35;;;18.25;;
74162;SDS011;62515;52.758;5.076;2023-08-06T01:49:25;23.75;;;20.42;;
74162;SDS011;62515;52.758;5.076;2023-08-06T01:51:53;21.38;;;16.80;;
74162;SDS011;62515;52.758;5.076;2023-08-06T01:54:21;24.05;;;19.40;;
74162;SDS011;62515;52.758;5.076;2023-08-06T01:56:48;28.02;;;21.08;;
74162;SDS011;62515;52.758;5.076;2023-08-06T01:59:15;24.52;;;18.75;;
74162;SDS011;62515;52.758;5.076;2023-08-06T02:01:41;24.00;;;19.30;;
74162;SDS011;62515;52.758;5.076;2023-08-06T02:04:08;26.05;;;18.65;;
74162;SDS011;62515;52.758;5.076;2023-08-06T02:06:35;24.20;;;18.77;;
74162;SDS011;62515;52.758;5.076;2023-08-06T02:09:02;24.67;;;18.25;;
74162;SDS011;62515;52.758;5.076;2023-08-06T02:11:30;24.52;;;19.65;;
74162;SDS011;62515;52.758;5.076;2023-08-06T02:13:56;27.10;;;19.02;;
74162;SDS011;62515;52.758;5.076;2023-08-06T02:16:23;25.15;;;18.27;;
74162;SDS011;62515;52.758;5.076;2023-08-06T02:18:50;21.35;;;18.00;;
74162;SDS011;62515;52.758;5.076;2023-08-06T02:21:18;24.58;;;19.92;;
74162;SDS011;62515;52.758;5.076;2023-08-06T02:23:45;27.38;;;20.30;;
74162;SDS011;62515;52.758;5.076;2023-08-06T02:26:11;26.33;;;20.30;;
74162;SDS011;62515;52.758;5.076;2023-08-06T02:28:39;25.48;;;19.13;;
74162;SDS011;62515;52.758;5.076;2023-08-06T02:31:06;23.50;;;20.83;;
74162;SDS011;62515;52.758;5.076;2023-08-06T02:33:36;25.65;;;19.50;;
74162;SDS011;62515;52.758;5.076;2023-08-06T02:36:03;23.55;;;18.98;;
74162;SDS011;62515;52.758;5.076;2023-08-06T02:38:30;24.67;;;19.30;;
74162;SDS011;62515;52.758;5.076;2023-08-06T02:40:58;23.30;;;18.60;;
74162;SDS011;62515;52.758;5.076;2023-08-06T02:43:25;27.52;;;18.85;;
74162;SDS011;62515;52.758;5.076;2023-08-06T02:45:56;25.23;;;19.45;;
74162;SDS011;62515;52.758;5.076;2023-08-06T02:48:23;23.80;;;18.45;;
74162;SDS011;62515;52.758;5.076;2023-08-06T02:50:50;26.40;;;19.23;;
74162;SDS011;62515;52.758;5.076;2023-08-06T02:53:17;26.60;;;21.52;;
74162;SDS011;62515;52.758;5.076;2023-08-06T02:55:45;29.73;;;24.55;;
74162;SDS011;62515;52.758;5.076;2023-08-06T02:58:15;32.53;;;26.83;;
74162;SDS011;62515;52.758;5.076;2023-08-06T03:01:03;42.08;;;36.35;;
74162;SDS011;62515;52.758;5.076;2023-08-06T03:03:38;34.85;;;28.40;;
74162;SDS011;62515;52.758;5.076;2023-08-06T03:06:06;53.70;;;48.75;;
74162;SDS011;62515;52.758;5.076;2023-08-06T03:08:45;60.83;;;55.30;;
74162;SDS011;62515;52.758;5.076;2023-08-06T03:11:12;72.15;;;66.03;;
74162;SDS011;62515;52.758;5.076;2023-08-06T03:13:40;77.38;;;70.80;;
74162;SDS011;62515;52.758;5.076;2023-08-06T03:16:08;85.88;;;78.50;;
74162;SDS011;62515;52.758;5.076;2023-08-06T03:18:35;82.07;;;75.63;;
74162;SDS011;62515;52.758;5.076;2023-08-06T03:21:04;57.75;;;52.45;;
74162;SDS011;62515;52.758;5.076;2023-08-06T03:23:32;47.38;;;42.97;;
74162;SDS011;62515;52.758;5.076;2023-08-06T03:26:01;86.57;;;79.40;;
74162;SDS011;62515;52.758;5.076;2023-08-06T03:28:29;87.60;;;80.80;;
74162;SDS011;62515;52.758;5.076;2023-08-06T03:30:59;70.22;;;64.45;;
74162;SDS011;62515;52.758;5.076;2023-08-06T03:33:31;48.22;;;43.80;;
74162;SDS011;62515;52.758;5.076;2023-08-06T03:35:59;40.63;;;36.88;;
74162;SDS011;62515;52.758;5.076;2023-08-06T03:38:25;53.92;;;49.22;;
74162;SDS011;62515;52.758;5.076;2023-08-06T03:40:53;52.13;;;47.63;;
74162;SDS011;62515;52.758;5.076;2023-08-06T03:43:20;51.60;;;47.10;;
74162;SDS011;62515;52.758;5.076;2023-08-06T03:45:47;36.75;;;33.00;;
74162;SDS011;62515;52.758;5.076;2023-08-06T03:48:14;52.30;;;47.70;;
74162;SDS011;62515;52.758;5.076;2023-08-06T03:50:42;46.20;;;42.03;;
74162;SDS011;62515;52.758;5.076;2023-08-06T03:53:12;110.38;;;102.28;;
74162;SDS011;62515;52.758;5.076;2023-08-06T03:55:39;102.78;;;95.10;;
74162;SDS011;62515;52.758;5.076;2023-08-06T03:58:06;91.20;;;84.63;;
74162;SDS011;62515;52.758;5.076;2023-08-06T04:00:33;74.90;;;69.32;;
74162;SDS011;62515;52.758;5.076;2023-08-06T04:02:59;95.32;;;88.65;;
74162;SDS011;62515;52.758;5.076;2023-08-06T04:05:30;124.85;;;116.00;;
74162;SDS011;62515;52.758;5.076;2023-08-06T04:07:59;67.85;;;62.15;;
74162;SDS011;62515;52.758;5.076;2023-08-06T04:10:25;73.88;;;68.38;;
74162;SDS011;62515;52.758;5.076;2023-08-06T04:12:52;52.88;;;48.00;;
74162;SDS011;62515;52.758;5.076;2023-08-06T04:15:19;93.03;;;86.15;;
74162;SDS011;62515;52.758;5.076;2023-08-06T04:17:46;81.15;;;75.43;;
74162;SDS011;62515;52.758;5.076;2023-08-06T04:20:13;100.18;;;92.78;;
74162;SDS011;62515;52.758;5.076;2023-08-06T04:22:40;49.72;;;45.33;;
74162;SDS011;62515;52.758;5.076;2023-08-06T04:25:08;47.30;;;43.28;;
74162;SDS011;62515;52.758;5.076;2023-08-06T04:27:35;42.83;;;38.85;;
74162;SDS011;62515;52.758;5.076;2023-08-06T04:30:02;43.53;;;39.42;;
74162;SDS011;62515;52.758;5.076;2023-08-06T04:32:31;31.48;;;28.23;;
74162;SDS011;62515;52.758;5.076;2023-08-06T04:34:58;33.10;;;29.45;;
74162;SDS011;62515;52.758;5.076;2023-08-06T04:37:25;31.80;;;25.23;;
74162;SDS011;62515;52.758;5.076;2023-08-06T04:39:53;44.15;;;40.05;;
74162;SDS011;62515;52.758;5.076;2023-08-06T04:42:21;27.63;;;24.63;;
74162;SDS011;62515;52.758;5.076;2023-08-06T04:44:47;26.60;;;23.20;;
74162;SDS011;62515;52.758;5.076;2023-08-06T04:47:14;30.80;;;23.27;;
74162;SDS011;62515;52.758;5.076;2023-08-06T04:49:41;27.30;;;20.80;;
74162;SDS011;62515;52.758;5.076;2023-08-06T04:52:08;30.52;;;26.42;;
74162;SDS011;62515;52.758;5.076;2023-08-06T04:54:34;23.08;;;20.48;;
74162;SDS011;62515;52.758;5.076;2023-08-06T04:57:01;30.42;;;23.80;;
74162;SDS011;62515;52.758;5.076;2023-08-06T04:59:29;26.00;;;22.15;;
74162;SDS011;62515;52.758;5.076;2023-08-06T05:01:56;23.98;;;19.88;;
74162;SDS011;62515;52.758;5.076;2023-08-06T05:04:23;26.05;;;17.90;;
74162;SDS011;62515;52.758;5.076;2023-08-06T05:06:50;24.60;;;18.10;;
74162;SDS011;62515;52.758;5.076;2023-08-06T05:09:16;23.60;;;17.80;;
74162;SDS011;62515;52.758;5.076;2023-08-06T05:11:43;23.55;;;16.80;;
74162;SDS011;62515;52.758;5.076;2023-08-06T05:14:10;23.38;;;17.55;;
74162;SDS011;62515;52.758;5.076;2023-08-06T05:16:38;21.90;;;16.13;;
74162;SDS011;62515;52.758;5.076;2023-08-06T05:19:05;22.10;;;15.93;;
74162;SDS011;62515;52.758;5.076;2023-08-06T05:21:32;22.50;;;15.77;;
74162;SDS011;62515;52.758;5.076;2023-08-06T05:23:58;21.33;;;16.30;;
74162;SDS011;62515;52.758;5.076;2023-08-06T05:26:25;21.75;;;17.48;;
74162;SDS011;62515;52.758;5.076;2023-08-06T05:28:52;22.25;;;17.27;;
74162;SDS011;62515;52.758;5.076;2023-08-06T05:31:18;18.67;;;15.95;;
74162;SDS011;62515;52.758;5.076;2023-08-06T05:33:46;19.40;;;16.23;;
74162;SDS011;62515;52.758;5.076;2023-08-06T05:36:13;21.40;;;16.85;;
74162;SDS011;62515;52.758;5.076;2023-08-06T05:38:40;24.30;;;18.02;;
74162;SDS011;62515;52.758;5.076;2023-08-06T05:41:07;21.80;;;18.05;;
74162;SDS011;62515;52.758;5.076;2023-08-06T05:43:33;26.35;;;18.58;;
74162;SDS011;62515;52.758;5.076;2023-08-06T05:46:00;23.88;;;16.95;;
74162;SDS011;62515;52.758;5.076;2023-08-06T05:48:27;23.05;;;16.65;;
74162;SDS011;62515;52.758;5.076;2023-08-06T05:50:55;21.75;;;17.35;;
74162;SDS011;62515;52.758;5.076;2023-08-06T05:53:22;24.35;;;17.25;;
74162;SDS011;62515;52.758;5.076;2023-08-06T05:55:49;23.70;;;19.27;;
74162;SDS011;62515;52.758;5.076;2023-08-06T05:58:16;27.33;;;18.73;;
74162;SDS011;62515;52.758;5.076;2023-08-06T06:00:43;25.73;;;18.20;;
74162;SDS011;62515;52.758;5.076;2023-08-06T06:03:09;26.02;;;19.05;;
74162;SDS011;62515;52.758;5.076;2023-08-06T06:05:37;24.85;;;18.65;;
74162;SDS011;62515;52.758;5.076;2023-08-06T06:08:05;24.02;;;20.65;;
74162;SDS011;62515;52.758;5.076;2023-08-06T06:10:32;22.25;;;15.98;;
74162;SDS011;62515;52.758;5.076;2023-08-06T06:12:59;23.23;;;16.35;;
74162;SDS011;62515;52.758;5.076;2023-08-06T06:15:25;29.08;;;26.25;;
74162;SDS011;62515;52.758;5.076;2023-08-06T06:17:52;23.50;;;18.25;;
74162;SDS011;62515;52.758;5.076;2023-08-06T06:20:19;20.50;;;17.15;;
74162;SDS011;62515;52.758;5.076;2023-08-06T06:22:46;23.17;;;17.50;;
74162;SDS011;62515;52.758;5.076;2023-08-06T06:25:14;21.20;;;16.83;;
74162;SDS011;62515;52.758;5.076;2023-08-06T06:27:40;19.45;;;16.80;;
74162;SDS011;62515;52.758;5.076;2023-08-06T06:30:08;23.27;;;20.95;;
74162;SDS011;62515;52.758;5.076;2023-08-06T06:32:35;19.55;;;16.73;;
74162;SDS011;62515;52.758;5.076;2023-08-06T06:35:01;20.00;;;16.30;;
74162;SDS011;62515;52.758;5.076;2023-08-06T06:37:28;21.38;;;17.15;;
74162;SDS011;62515;52.758;5.076;2023-08-06T06:39:55;19.85;;;16.10;;
74162;SDS011;62515;52.758;5.076;2023-08-06T06:42:23;19.02;;;16.10;;
74162;SDS011;62515;52.758;5.076;2023-08-06T06:44:57;19.60;;;16.48;;
74162;SDS011;62515;52.758;5.076;2023-08-06T06:47:25;19.77;;;16.05;;
74162;SDS011;62515;52.758;5.076;2023-08-06T06:49:52;19.15;;;16.45;;
74162;SDS011;62515;52.758;5.076;2023-08-06T06:52:19;21.33;;;16.80;;
74162;SDS011;62515;52.758;5.076;2023-08-06T06:54:46;18.40;;;16.35;;
74162;SDS011;62515;52.758;5.076;2023-08-06T06:57:12;21.33;;;18.00;;
74162;SDS011;62515;52.758;5.076;2023-08-06T06:59:40;19.77;;;17.10;;
74162;SDS011;62515;52.758;5.076;2023-08-06T07:02:07;17.52;;;15.02;;
74162;SDS011;62515;52.758;5.076;2023-08-06T07:04:34;21.63;;;19.42;;
74162;SDS011;62515;52.758;5.076;2023-08-06T07:07:01;20.35;;;18.33;;
74162;SDS011;62515;52.758;5.076;2023-08-06T07:09:27;19.63;;;17.08;;
74162;SDS011;62515;52.758;5.076;2023-08-06T07:11:54;23.42;;;19.35;;
74162;SDS011;62515;52.758;5.076;2023-08-06T07:14:21;18.48;;;15.95;;
74162;SDS011;62515;52.758;5.076;2023-08-06T07:16:50;16.13;;;14.20;;
74162;SDS011;62515;52.758;5.076;2023-08-06T07:19:17;19.20;;;17.23;;
74162;SDS011;62515;52.758;5.076;2023-08-06T07:21:44;18.77;;;15.32;;
74162;SDS011;62515;52.758;5.076;2023-08-06T07:24:10;19.05;;;17.13;;
74162;SDS011;62515;52.758;5.076;2023-08-06T07:26:37;30.92;;;28.17;;
74162;SDS011;62515;52.758;5.076;2023-08-06T07:29:04;19.45;;;16.58;;
74162;SDS011;62515;52.758;5.076;2023-08-06T07:31:30;17.17;;;15.63;;
74162;SDS011;62515;52.758;5.076;2023-08-06T07:33:59;13.68;;;12.57;;
74162;SDS011;62515;52.758;5.076;2023-08-06T07:36:25;14.27;;;13.20;;
74162;SDS011;62515;52.758;5.076;2023-08-06T07:38:52;87.75;;;81.75;;
74162;SDS011;62515;52.758;5.076;2023-08-06T07:41:19;13.73;;;12.55;;
74162;SDS011;62515;52.758;5.076;2023-08-06T07:43:45;10.02;;;9.25;;
74162;SDS011;62515;52.758;5.076;2023-08-06T07:46:12;9.15;;;8.35;;
74162;SDS011;62515;52.758;5.076;2023-08-06T07:48:39;9.23;;;8.57;;
74162;SDS011;62515;52.758;5.076;2023-08-06T07:51:07;10.50;;;9.80;;
74162;SDS011;62515;52.758;5.076;2023-08-06T07:53:34;11.27;;;10.40;;
74162;SDS011;62515;52.758;5.076;2023-08-06T07:56:00;9.27;;;8.48;;
74162;SDS011;62515;52.758;5.076;2023-08-06T07:58:27;15.35;;;14.10;;
74162;SDS011;62515;52.758;5.076;2023-08-06T08:00:54;16.45;;;15.35;;
74162;SDS011;62515;52.758;5.076;2023-08-06T08:03:20;9.88;;;9.02;;
74162;SDS011;62515;52.758;5.076;2023-08-06T08:05:47;18.38;;;16.98;;
74162;SDS011;62515;52.758;5.076;2023-08-06T08:08:15;21.75;;;20.15;;
74162;SDS011;62515;52.758;5.076;2023-08-06T08:10:42;11.23;;;10.13;;
74162;SDS011;62515;52.758;5.076;2023-08-06T08:13:09;9.63;;;8.73;;
74162;SDS011;62515;52.758;5.076;2023-08-06T08:15:35;16.02;;;14.95;;
74162;SDS011;62515;52.758;5.076;2023-08-06T08:18:02;11.57;;;10.68;;
74162;SDS011;62515;52.758;5.076;2023-08-06T08:20:29;12.07;;;11.13;;
74162;SDS011;62515;52.758;5.076;2023-08-06T08:22:56;27.98;;;25.92;;
74162;SDS011;62515;52.758;5.076;2023-08-06T08:25:24;9.73;;;8.82;;
74162;SDS011;62515;52.758;5.076;2023-08-06T08:27:50;11.15;;;10.32;;
74162;SDS011;62515;52.758;5.076;2023-08-06T08:30:17;10.68;;;9.60;;
74162;SDS011;62515;52.758;5.076;2023-08-06T08:32:44;10.45;;;9.48;;
74162;SDS011;62515;52.758;5.076;2023-08-06T08:35:11;15.18;;;13.38;;
74162;SDS011;62515;52.758;5.076;2023-08-06T08:37:38;18.83;;;17.42;;
74162;SDS011;62515;52.758;5.076;2023-08-06T08:40:05;17.08;;;15.77;;
74162;SDS011;62515;52.758;5.076;2023-08-06T08:42:34;10.57;;;9.63;;
74162;SDS011;62515;52.758;5.076;2023-08-06T08:45:01;10.02;;;8.90;;
74162;SDS011;62515;52.758;5.076;2023-08-06T08:47:30;10.57;;;9.68;;
74162;SDS011;62515;52.758;5.076;2023-08-06T08:49:57;9.77;;;8.98;;
74162;SDS011;62515;52.758;5.076;2023-08-06T08:52:26;7.45;;;6.85;;
74162;SDS011;62515;52.758;5.076;2023-08-06T08:54:56;10.30;;;9.43;;
74162;SDS011;62515;52.758;5.076;2023-08-06T08:57:24;10.05;;;9.20;;
74162;SDS011;62515;52.758;5.076;2023-08-06T08:59:52;7.57;;;7.03;;
74162;SDS011;62515;52.758;5.076;2023-08-06T09:02:19;12.23;;;11.20;;
74162;SDS011;62515;52.758;5.076;2023-08-06T09:04:48;10.45;;;9.57;;
74162;SDS011;62515;52.758;5.076;2023-08-06T09:07:17;12.18;;;11.20;;
74162;SDS011;62515;52.758;5.076;2023-08-06T09:09:46;9.57;;;8.88;;
74162;SDS011;62515;52.758;5.076;2023-08-06T09:12:16;11.18;;;9.80;;
74162;SDS011;62515;52.758;5.076;2023-08-06T09:14:43;10.90;;;10.10;;
74162;SDS011;62515;52.758;5.076;2023-08-06T09:17:11;10.88;;;9.98;;
74162;SDS011;62515;52.758;5.076;2023-08-06T09:19:41;48.83;;;45.58;;
74162;SDS011;62515;52.758;5.076;2023-08-06T09:22:08;13.50;;;12.60;;
74162;SDS011;62515;52.758;5.076;2023-08-06T09:24:38;10.15;;;9.35;;
74162;SDS011;62515;52.758;5.076;2023-08-06T09:27:05;9.85;;;8.95;;
74162;SDS011;62515;52.758;5.076;2023-08-06T09:29:39;8.50;;;7.85;;
74162;SDS011;62515;52.758;5.076;2023-08-06T09:34:35;8.63;;;7.72;;
74162;SDS011;62515;52.758;5.076;2023-08-06T09:37:02;10.60;;;8.73;;
74162;SDS011;62515;52.758;5.076;2023-08-06T09:39:30;20.63;;;19.15;;
74162;SDS011;62515;52.758;5.076;2023-08-06T09:41:57;11.15;;;10.27;;
74162;SDS011;62515;52.758;5.076;2023-08-06T09:44:26;10.27;;;9.38;;
74162;SDS011;62515;52.758;5.076;2023-08-06T09:46:53;9.32;;;8.45;;
74162;SDS011;62515;52.758;5.076;2023-08-06T09:49:21;9.55;;;8.85;;
74162;SDS011;62515;52.758;5.076;2023-08-06T09:51:53;7.90;;;7.13;;
74162;SDS011;62515;52.758;5.076;2023-08-06T09:54:20;9.43;;;8.60;;
74162;SDS011;62515;52.758;5.076;2023-08-06T09:56:53;9.48;;;8.70;;
74162;SDS011;62515;52.758;5.076;2023-08-06T09:59:21;8.65;;;8.05;;
74162;SDS011;62515;52.758;5.076;2023-08-06T10:01:49;8.15;;;7.50;;
74162;SDS011;62515;52.758;5.076;2023-08-06T10:04:16;8.27;;;7.57;;
74162;SDS011;62515;52.758;5.076;2023-08-06T10:06:49;7.95;;;7.30;;
74162;SDS011;62515;52.758;5.076;2023-08-06T10:09:18;8.13;;;7.30;;
74162;SDS011;62515;52.758;5.076;2023-08-06T10:11:46;9.50;;;8.60;;
74162;SDS011;62515;52.758;5.076;2023-08-06T10:14:16;8.95;;;7.32;;
74162;SDS011;62515;52.758;5.076;2023-08-06T10:16:47;7.43;;;6.90;;
74162;SDS011;62515;52.758;5.076;2023-08-06T10:19:15;8.95;;;8.25;;
74162;SDS011;62515;52.758;5.076;2023-08-06T10:21:57;7.10;;;6.50;;
74162;SDS011;62515;52.758;5.076;2023-08-06T10:24:46;10.65;;;6.15;;
74162;SDS011;62515;52.758;5.076;2023-08-06T10:27:19;6.18;;;4.70;;
74162;SDS011;62515;52.758;5.076;2023-08-06T10:29:54;6.72;;;6.20;;
74162;SDS011;62515;52.758;5.076;2023-08-06T10:35:33;10.63;;;9.85;;
74162;SDS011;62515;52.758;5.076;2023-08-06T10:38:05;7.20;;;5.85;;
74162;SDS011;62515;52.758;5.076;2023-08-06T10:40:36;6.70;;;6.07;;
74162;SDS011;62515;52.758;5.076;2023-08-06T10:43:03;6.28;;;5.78;;
74162;SDS011;62515;52.758;5.076;2023-08-06T10:45:31;7.68;;;6.88;;
74162;SDS011;62515;52.758;5.076;2023-08-06T10:48:01;8.65;;;7.82;;
74162;SDS011;62515;52.758;5.076;2023-08-06T10:50:28;11.07;;;10.05;;
74162;SDS011;62515;52.758;5.076;2023-08-06T10:52:55;9.88;;;8.60;;
74162;SDS011;62515;52.758;5.076;2023-08-06T10:55:22;9.18;;;8.30;;
74162;SDS011;62515;52.758;5.076;2023-08-06T10:57:51;13.25;;;12.30;;
74162;SDS011;62515;52.758;5.076;2023-08-06T11:00:18;8.88;;;8.18;;
74162;SDS011;62515;52.758;5.076;2023-08-06T11:02:46;19.45;;;17.85;;
74162;SDS011;62515;52.758;5.076;2023-08-06T11:05:14;9.35;;;8.57;;
74162;SDS011;62515;52.758;5.076;2023-08-06T11:07:40;9.02;;;8.32;;
74162;SDS011;62515;52.758;5.076;2023-08-06T11:10:08;9.45;;;8.73;;
74162;SDS011;62515;52.758;5.076;2023-08-06T11:12:36;8.93;;;8.27;;
74162;SDS011;62515;52.758;5.076;2023-08-06T11:15:05;10.77;;;9.98;;
74162;SDS011;62515;52.758;5.076;2023-08-06T11:17:33;10.55;;;9.63;;
74162;SDS011;62515;52.758;5.076;2023-08-06T11:20:01;9.02;;;8.32;;
74162;SDS011;62515;52.758;5.076;2023-08-06T11:22:29;12.63;;;11.65;;
74162;SDS011;62515;52.758;5.076;2023-08-06T11:24:56;10.30;;;9.50;;
74162;SDS011;62515;52.758;5.076;2023-08-06T11:27:25;9.38;;;8.43;;
74162;SDS011;62515;52.758;5.076;2023-08-06T11:32:21;10.82;;;10.02;;
74162;SDS011;62515;52.758;5.076;2023-08-06T11:34:48;8.30;;;7.60;;
74162;SDS011;62515;52.758;5.076;2023-08-06T11:37:14;10.50;;;9.65;;
74162;SDS011;62515;52.758;5.076;2023-08-06T11:39:44;11.85;;;10.93;;
74162;SDS011;62515;52.758;5.076;2023-08-06T11:42:13;12.43;;;11.60;;
74162;SDS011;62515;52.758;5.076;2023-08-06T11:44:40;11.45;;;10.60;;
74162;SDS011;62515;52.758;5.076;2023-08-06T11:47:11;11.27;;;10.38;;
74162;SDS011;62515;52.758;5.076;2023-08-06T11:49:45;11.20;;;10.40;;
74162;SDS011;62515;52.758;5.076;2023-08-06T11:52:13;11.27;;;10.27;;
74162;SDS011;62515;52.758;5.076;2023-08-06T11:57:08;9.73;;;9.02;;
74162;SDS011;62515;52.758;5.076;2023-08-06T11:59:37;9.90;;;8.90;;
74162;SDS011;62515;52.758;5.076;2023-08-06T12:02:05;11.40;;;10.52;;
74162;SDS011;62515;52.758;5.076;2023-08-06T12:07:28;8.23;;;7.60;;
74162;SDS011;62515;52.758;5.076;2023-08-06T12:09:56;9.10;;;8.40;;
74162;SDS011;62515;52.758;5.076;2023-08-06T12:12:23;12.68;;;11.63;;
74162;SDS011;62515;52.758;5.076;2023-08-06T12:14:50;11.85;;;10.93;;
74162;SDS011;62515;52.758;5.076;2023-08-06T12:17:17;21.85;;;20.40;;
74162;SDS011;62515;52.758;5.076;2023-08-06T12:19:44;14.80;;;13.77;;
74162;SDS011;62515;52.758;5.076;2023-08-06T12:22:12;18.02;;;16.83;;
74162;SDS011;62515;52.758;5.076;2023-08-06T12:24:40;17.23;;;16.17;;
74162;SDS011;62515;52.758;5.076;2023-08-06T12:27:07;11.23;;;10.23;;
74162;SDS011;62515;52.758;5.076;2023-08-06T12:29:34;11.45;;;10.50;;
74162;SDS011;62515;52.758;5.076;2023-08-06T12:32:00;10.23;;;9.32;;
74162;SDS011;62515;52.758;5.076;2023-08-06T12:34:27;10.05;;;9.35;;
74162;SDS011;62515;52.758;5.076;2023-08-06T12:37:02;13.10;;;12.13;;
74162;SDS011;62515;52.758;5.076;2023-08-06T12:39:30;11.95;;;10.95;;
74162;SDS011;62515;52.758;5.076;2023-08-06T12:41:57;10.95;;;10.15;;
74162;SDS011;62515;52.758;5.076;2023-08-06T12:44:32;12.95;;;12.07;;
74162;SDS011;62515;52.758;5.076;2023-08-06T12:46:59;10.20;;;9.32;;
74162;SDS011;62515;52.758;5.076;2023-08-06T12:49:26;9.32;;;8.55;;
74162;SDS011;62515;52.758;5.076;2023-08-06T12:51:53;10.65;;;9.60;;
74162;SDS011;62515;52.758;5.076;2023-08-06T12:54:20;10.50;;;9.63;;
74162;SDS011;62515;52.758;5.076;2023-08-06T12:56:48;12.68;;;11.65;;
74162;SDS011;62515;52.758;5.076;2023-08-06T12:59:16;10.82;;;10.10;;
74162;SDS011;62515;52.758;5.076;2023-08-06T13:01:43;12.93;;;12.00;;
74162;SDS011;62515;52.758;5.076;2023-08-06T13:04:11;11.05;;;10.18;;
74162;SDS011;62515;52.758;5.076;2023-08-06T13:06:48;14.88;;;13.85;;
74162;SDS011;62515;52.758;5.076;2023-08-06T13:09:15;18.88;;;17.60;;
74162;SDS011;62515;52.758;5.076;2023-08-06T13:11:42;10.55;;;9.68;;
74162;SDS011;62515;52.758;5.076;2023-08-06T13:14:11;11.02;;;10.13;;
74162;SDS011;62515;52.758;5.076;2023-08-06T13:16:39;10.63;;;9.63;;
74162;SDS011;62515;52.758;5.076;2023-08-06T13:19:07;8.27;;;6.88;;
74162;SDS011;62515;52.758;5.076;2023-08-06T13:21:35;7.20;;;6.60;;
74162;SDS011;62515;52.758;5.076;2023-08-06T13:24:18;7.97;;;7.28;;
74162;SDS011;62515;52.758;5.076;2023-08-06T13:26:45;8.00;;;7.28;;
74162;SDS011;62515;52.758;5.076;2023-08-06T13:29:13;13.82;;;12.88;;
74162;SDS011;62515;52.758;5.076;2023-08-06T13:31:40;7.38;;;6.78;;
74162;SDS011;62515;52.758;5.076;2023-08-06T13:34:07;8.43;;;7.82;;
74162;SDS011;62515;52.758;5.076;2023-08-06T13:36:34;7.22;;;6.68;;
74162;SDS011;62515;52.758;5.076;2023-08-06T13:39:01;9.10;;;8.50;;
74162;SDS011;62515;52.758;5.076;2023-08-06T13:41:27;8.32;;;7.50;;
74162;SDS011;62515;52.758;5.076;2023-08-06T13:43:54;9.50;;;8.80;;
74162;SDS011;62515;52.758;5.076;2023-08-06T13:46:22;7.97;;;7.38;;
74162;SDS011;62515;52.758;5.076;2023-08-06T13:48:49;11.60;;;10.80;;
74162;SDS011;62515;52.758;5.076;2023-08-06T13:51:16;6.15;;;5.55;;
74162;SDS011;62515;52.758;5.076;2023-08-06T13:53:43;5.93;;;5.43;;
74162;SDS011;62515;52.758;5.076;2023-08-06T13:56:10;5.53;;;5.03;;
74162;SDS011;62515;52.758;5.076;2023-08-06T13:58:37;6.30;;;5.80;;
74162;SDS011;62515;52.758;5.076;2023-08-06T14:01:04;7.15;;;6.55;;
74162;SDS011;62515;52.758;5.076;2023-08-06T14:03:32;8.18;;;7.25;;
74162;SDS011;62515;52.758;5.076;2023-08-06T14:05:59;6.80;;;6.00;;
74162;SDS011;62515;52.758;5.076;2023-08-06T14:08:26;10.13;;;6.43;;
74162;SDS011;62515;52.758;5.076;2023-08-06T14:10:53;10.75;;;9.88;;
74162;SDS011;62515;52.758;5.076;2023-08-06T14:13:20;16.23;;;14.73;;
74162;SDS011;62515;52.758;5.076;2023-08-06T14:15:47;26.80;;;24.38;;
74162;SDS011;62515;52.758;5.076;2023-08-06T14:18:14;27.08;;;25.02;;
74162;SDS011;62515;52.758;5.076;2023-08-06T14:20:43;13.48;;;10.30;;
74162;SDS011;62515;52.758;5.076;2023-08-06T14:23:10;24.15;;;22.13;;
74162;SDS011;62515;52.758;5.076;2023-08-06T14:25:37;9.70;;;8.90;;
74162;SDS011;62515;52.758;5.076;2023-08-06T14:28:05;9.65;;;8.55;;
74162;SDS011;62515;52.758;5.076;2023-08-06T14:30:33;8.52;;;7.78;;
74162;SDS011;62515;52.758;5.076;2023-08-06T14:33:00;13.57;;;12.30;;
74162;SDS011;62515;52.758;5.076;2023-08-06T14:35:43;39.47;;;36.55;;
74162;SDS011;62515;52.758;5.076;2023-08-06T14:38:10;38.97;;;35.92;;
74162;SDS011;62515;52.758;5.076;2023-08-06T14:40:36;26.35;;;24.55;;
74162;SDS011;62515;52.758;5.076;2023-08-06T14:43:03;13.23;;;12.05;;
74162;SDS011;62515;52.758;5.076;2023-08-06T14:45:31;29.90;;;27.75;;